sensor_id;sensor_type;location;lat;lon;timestamp;pressure;altitude;pressure_sealevel;temperature;humidity
21129;BME280;10722;51.910;8.352;2022-12-07T00:00:07;100856.09;;;3.95;100.00
21129;BME280;10722;51.910;8.352;2022-12-07T00:02:52;100857.09;;;3.98;100.00
21129;BME280;10722;51.910;8.352;2022-12-07T00:05:38;100854.63;;;4.00;100.00
21129;BME280;10722;51.910;8.352;2022-12-07T00:08:23;100857.09;;;3.98;100.00
21129;BME280;10722;51.910;8.352;2022-12-07T00:11:16;100853.66;;;3.98;100.00
21129;BME280;10722;51.910;8.352;2022-12-07T00:14:05;100851.97;;;3.98;100.00
21129;BME280;10722;51.910;8.352;2022-12-07T00:16:51;100849.03;;;4.09;100.00
21129;BME280;10722;51.910;8.352;2022-12-07T00:19:36;100847.13;;;4.04;100.00
21129;BME280;10722;51.910;8.352;2022-12-07T00:22:21;100845.66;;;4.10;100.00
21129;BME280;10722;51.910;8.352;2022-12-07T00:25:06;100842.16;;;4.08;100.00
21129;BME280;10722;51.910;8.352;2022-12-07T00:27:53;100843.69;;;4.04;100.00
21129;BME280;10722;51.910;8.352;2022-12-07T00:30:38;100835.41;;;4.10;100.00
21129;BME280;10722;51.910;8.352;2022-12-07T00:33:23;100839.53;;;4.06;100.00
21129;BME280;10722;51.910;8.352;2022-12-07T00:36:11;100840.19;;;4.02;100.00
21129;BME280;10722;51.910;8.352;2022-12-07T00:38:58;100835.16;;;4.03;100.00
21129;BME280;10722;51.910;8.352;2022-12-07T00:41:44;100836.88;;;4.04;100.00
21129;BME280;10722;51.910;8.352;2022-12-07T00:44:29;100839.41;;;4.03;100.00
21129;BME280;10722;51.910;8.352;2022-12-07T00:47:14;100837.72;;;4.03;100.00
21129;BME280;10722;51.910;8.352;2022-12-07T00:49:59;100833.38;;;4.02;100.00
21129;BME280;10722;51.910;8.352;2022-12-07T00:52:45;100831.78;;;4.04;100.00
21129;BME280;10722;51.910;8.352;2022-12-07T00:55:34;100818.00;;;4.02;100.00
21129;BME280;10722;51.910;8.352;2022-12-07T00:58:20;100821.66;;;4.08;100.00
21129;BME280;10722;51.910;8.352;2022-12-07T01:01:06;100825.66;;;4.20;100.00
21129;BME280;10722;51.910;8.352;2022-12-07T01:03:51;100815.06;;;4.13;100.00
21129;BME280;10722;51.910;8.352;2022-12-07T01:06:36;100818.44;;;4.12;100.00
21129;BME280;10722;51.910;8.352;2022-12-07T01:09:23;100812.03;;;4.21;100.00
21129;BME280;10722;51.910;8.352;2022-12-07T01:12:08;100810.16;;;4.17;100.00
21129;BME280;10722;51.910;8.352;2022-12-07T01:14:53;100811.78;;;4.15;100.00
21129;BME280;10722;51.910;8.352;2022-12-07T01:17:37;100819.13;;;4.27;100.00
21129;BME280;10722;51.910;8.352;2022-12-07T01:20:22;100819.81;;;4.23;100.00
21129;BME280;10722;51.910;8.352;2022-12-07T01:23:07;100818.16;;;4.25;100.00
21129;BME280;10722;51.910;8.352;2022-12-07T01:26:03;100825.66;;;4.20;100.00
21129;BME280;10722;51.910;8.352;2022-12-07T01:28:48;100817.75;;;4.16;100.00
21129;BME280;10722;51.910;8.352;2022-12-07T01:31:34;100828.69;;;4.12;100.00
21129;BME280;10722;51.910;8.352;2022-12-07T01:34:19;100820.19;;;4.13;100.00
21129;BME280;10722;51.910;8.352;2022-12-07T01:37:04;100834.81;;;4.15;100.00
21129;BME280;10722;51.910;8.352;2022-12-07T01:39:50;100825.84;;;4.25;100.00
21129;BME280;10722;51.910;8.352;2022-12-07T01:42:36;100828.81;;;4.15;100.00
21129;BME280;10722;51.910;8.352;2022-12-07T01:48:18;100834.91;;;4.17;100.00
21129;BME280;10722;51.910;8.352;2022-12-07T01:51:08;100828.88;;;4.16;100.00
21129;BME280;10722;51.910;8.352;2022-12-07T01:53:55;100827.41;;;4.21;100.00
21129;BME280;10722;51.910;8.352;2022-12-07T01:56:45;100831.53;;;4.18;100.00
21129;BME280;10722;51.910;8.352;2022-12-07T01:59:34;100829.69;;;4.15;100.00
21129;BME280;10722;51.910;8.352;2022-12-07T02:02:24;100823.03;;;4.19;100.00
21129;BME280;10722;51.910;8.352;2022-12-07T02:05:11;100828.34;;;4.23;100.00
21129;BME280;10722;51.910;8.352;2022-12-07T02:07:57;100825.72;;;4.22;100.00
21129;BME280;10722;51.910;8.352;2022-12-07T02:10:44;100819.72;;;4.21;100.00
21129;BME280;10722;51.910;8.352;2022-12-07T02:13:31;100817.56;;;4.31;100.00
21129;BME280;10722;51.910;8.352;2022-12-07T02:25:22;100812.59;;;4.14;100.00
21129;BME280;10722;51.910;8.352;2022-12-07T02:28:26;100805.66;;;4.12;100.00
21129;BME280;10722;51.910;8.352;2022-12-07T02:31:18;100811.38;;;4.06;100.00
21129;BME280;10722;51.910;8.352;2022-12-07T02:34:11;100813.13;;;4.07;100.00
21129;BME280;10722;51.910;8.352;2022-12-07T02:37:06;100812.28;;;4.08;100.00
21129;BME280;10722;51.910;8.352;2022-12-07T02:40:00;100811.16;;;4.01;100.00
21129;BME280;10722;51.910;8.352;2022-12-07T02:42:51;100810.41;;;4.04;100.00
21129;BME280;10722;51.910;8.352;2022-12-07T02:45:40;100804.78;;;4.11;100.00
21129;BME280;10722;51.910;8.352;2022-12-07T02:48:27;100799.16;;;4.00;100.00
21129;BME280;10722;51.910;8.352;2022-12-07T02:51:13;100798.31;;;4.00;100.00
21129;BME280;10722;51.910;8.352;2022-12-07T02:53:59;100798.31;;;4.00;100.00
21129;BME280;10722;51.910;8.352;2022-12-07T02:56:46;100794.31;;;4.07;100.00
21129;BME280;10722;51.910;8.352;2022-12-07T03:02:46;100796.13;;;3.90;100.00
21129;BME280;10722;51.910;8.352;2022-12-07T03:09:13;100790.91;;;3.88;100.00
21129;BME280;10722;51.910;8.352;2022-12-07T03:12:24;100793.16;;;3.80;100.00
21129;BME280;10722;51.910;8.352;2022-12-07T03:15:18;100790.00;;;3.86;100.00
21129;BME280;10722;51.910;8.352;2022-12-07T03:18:07;100789.25;;;3.89;100.00
21129;BME280;10722;51.910;8.352;2022-12-07T03:20:58;100791.59;;;3.84;100.00
21129;BME280;10722;51.910;8.352;2022-12-07T03:23:53;100792.59;;;3.88;100.00
21129;BME280;10722;51.910;8.352;2022-12-07T03:26:42;100792.56;;;3.86;100.00
21129;BME280;10722;51.910;8.352;2022-12-07T03:29:37;100785.16;;;3.74;100.00
21129;BME280;10722;51.910;8.352;2022-12-07T03:32:30;100782.41;;;3.70;100.00
21129;BME280;10722;51.910;8.352;2022-12-07T03:35:38;100774.78;;;3.71;100.00
21129;BME280;10722;51.910;8.352;2022-12-07T03:38:50;100768.53;;;3.65;100.00
21129;BME280;10722;51.910;8.352;2022-12-07T03:41:38;100767.56;;;3.63;100.00
21129;BME280;10722;51.910;8.352;2022-12-07T03:44:29;100771.22;;;3.68;100.00
21129;BME280;10722;51.910;8.352;2022-12-07T03:50:10;100776.06;;;3.62;100.00
21129;BME280;10722;51.910;8.352;2022-12-07T03:53:04;100779.84;;;3.70;100.00
21129;BME280;10722;51.910;8.352;2022-12-07T03:55:54;100766.00;;;3.47;100.00
21129;BME280;10722;51.910;8.352;2022-12-07T03:58:39;100766.06;;;3.48;100.00
21129;BME280;10722;51.910;8.352;2022-12-07T04:01:25;100766.97;;;3.31;100.00
21129;BME280;10722;51.910;8.352;2022-12-07T04:04:11;100768.94;;;3.19;100.00
21129;BME280;10722;51.910;8.352;2022-12-07T04:06:56;100762.13;;;3.19;100.00
21129;BME280;10722;51.910;8.352;2022-12-07T04:09:41;100760.91;;;3.11;100.00
21129;BME280;10722;51.910;8.352;2022-12-07T04:12:26;100764.03;;;3.05;100.00
21129;BME280;10722;51.910;8.352;2022-12-07T04:15:12;100760.38;;;3.00;100.00
21129;BME280;10722;51.910;8.352;2022-12-07T04:17:57;100762.13;;;3.01;100.00
21129;BME280;10722;51.910;8.352;2022-12-07T04:20:41;100763.78;;;3.01;100.00
21129;BME280;10722;51.910;8.352;2022-12-07T04:23:27;100766.06;;;2.95;100.00
21129;BME280;10722;51.910;8.352;2022-12-07T04:26:12;100773.44;;;2.88;100.00
21129;BME280;10722;51.910;8.352;2022-12-07T04:28:58;100771.31;;;2.98;100.00
21129;BME280;10722;51.910;8.352;2022-12-07T04:31:50;100777.44;;;3.01;100.00
21129;BME280;10722;51.910;8.352;2022-12-07T04:34:36;100779.50;;;3.08;100.00
21129;BME280;10722;51.910;8.352;2022-12-07T04:37:22;100776.09;;;3.08;100.00
21129;BME280;10722;51.910;8.352;2022-12-07T04:40:08;100771.63;;;3.04;100.00
21129;BME280;10722;51.910;8.352;2022-12-07T04:42:53;100777.69;;;3.06;100.00
21129;BME280;10722;51.910;8.352;2022-12-07T04:45:38;100769.88;;;3.03;100.00
21129;BME280;10722;51.910;8.352;2022-12-07T04:48:23;100773.66;;;2.93;100.00
21129;BME280;10722;51.910;8.352;2022-12-07T04:51:08;100767.44;;;2.88;100.00
21129;BME280;10722;51.910;8.352;2022-12-07T04:53:54;100777.44;;;2.83;100.00
21129;BME280;10722;51.910;8.352;2022-12-07T04:56:39;100774.72;;;2.80;100.00
21129;BME280;10722;51.910;8.352;2022-12-07T04:59:24;100772.09;;;2.79;100.00
21129;BME280;10722;51.910;8.352;2022-12-07T05:02:09;100778.44;;;2.87;100.00
21129;BME280;10722;51.910;8.352;2022-12-07T05:04:55;100772.63;;;2.89;100.00
21129;BME280;10722;51.910;8.352;2022-12-07T05:07:40;100771.91;;;2.92;100.00
21129;BME280;10722;51.910;8.352;2022-12-07T05:10:25;100776.63;;;2.84;100.00
21129;BME280;10722;51.910;8.352;2022-12-07T05:13:10;100770.28;;;2.76;100.00
21129;BME280;10722;51.910;8.352;2022-12-07T05:15:55;100768.22;;;2.69;100.00
21129;BME280;10722;51.910;8.352;2022-12-07T05:18:41;100765.56;;;2.67;100.00
21129;BME280;10722;51.910;8.352;2022-12-07T05:21:25;100763.81;;;2.66;100.00
21129;BME280;10722;51.910;8.352;2022-12-07T05:24:12;100767.38;;;2.52;100.00
21129;BME280;10722;51.910;8.352;2022-12-07T05:26:57;100770.78;;;2.53;100.00
21129;BME280;10722;51.910;8.352;2022-12-07T05:29:43;100775.06;;;2.70;100.00
21129;BME280;10722;51.910;8.352;2022-12-07T05:32:28;100773.59;;;2.57;100.00
21129;BME280;10722;51.910;8.352;2022-12-07T05:35:13;100779.16;;;2.50;100.00
21129;BME280;10722;51.910;8.352;2022-12-07T05:37:58;100772.41;;;2.51;100.00
21129;BME280;10722;51.910;8.352;2022-12-07T05:40:43;100772.47;;;2.52;100.00
21129;BME280;10722;51.910;8.352;2022-12-07T05:43:28;100765.53;;;2.50;100.00
21129;BME280;10722;51.910;8.352;2022-12-07T05:46:13;100767.97;;;2.64;100.00
21129;BME280;10722;51.910;8.352;2022-12-07T05:48:58;100758.09;;;2.71;100.00
21129;BME280;10722;51.910;8.352;2022-12-07T05:51:43;100762.72;;;2.61;100.00
21129;BME280;10722;51.910;8.352;2022-12-07T05:54:28;100765.78;;;2.54;100.00
21129;BME280;10722;51.910;8.352;2022-12-07T05:57:13;100767.31;;;2.51;100.00
21129;BME280;10722;51.910;8.352;2022-12-07T05:59:58;100765.78;;;2.54;100.00
21129;BME280;10722;51.910;8.352;2022-12-07T06:02:44;100764.81;;;2.52;100.00
21129;BME280;10722;51.910;8.352;2022-12-07T06:05:30;100759.59;;;2.67;100.00
21129;BME280;10722;51.910;8.352;2022-12-07T06:08:15;100764.41;;;2.61;100.00
21129;BME280;10722;51.910;8.352;2022-12-07T06:11:00;100762.66;;;2.60;100.00
21129;BME280;10722;51.910;8.352;2022-12-07T06:13:46;100765.22;;;2.60;100.00
21129;BME280;10722;51.910;8.352;2022-12-07T06:16:31;100766.00;;;2.59;100.00
21129;BME280;10722;51.910;8.352;2022-12-07T06:19:17;100768.03;;;2.48;100.00
21129;BME280;10722;51.910;8.352;2022-12-07T06:22:02;100760.66;;;2.54;100.00
21129;BME280;10722;51.910;8.352;2022-12-07T06:24:48;100761.63;;;2.56;100.00
21129;BME280;10722;51.910;8.352;2022-12-07T06:27:33;100756.53;;;2.40;100.00
21129;BME280;10722;51.910;8.352;2022-12-07T06:30:18;100764.06;;;2.37;100.00
21129;BME280;10722;51.910;8.352;2022-12-07T06:33:03;100763.16;;;2.36;100.00
21129;BME280;10722;51.910;8.352;2022-12-07T06:35:48;100765.94;;;2.41;100.00
21129;BME280;10722;51.910;8.352;2022-12-07T06:38:34;100763.00;;;2.33;100.00
21129;BME280;10722;51.910;8.352;2022-12-07T06:41:19;100757.31;;;2.39;100.00
21129;BME280;10722;51.910;8.352;2022-12-07T06:44:05;100760.38;;;2.32;100.00
21129;BME280;10722;51.910;8.352;2022-12-07T06:46:52;100761.81;;;2.27;100.00
21129;BME280;10722;51.910;8.352;2022-12-07T06:49:56;100759.91;;;2.06;100.00
21129;BME280;10722;51.910;8.352;2022-12-07T06:52:44;100765.09;;;2.08;100.00
21129;BME280;10722;51.910;8.352;2022-12-07T06:55:29;100754.50;;;2.00;100.00
21129;BME280;10722;51.910;8.352;2022-12-07T06:58:14;100762.22;;;2.01;100.00
21129;BME280;10722;51.910;8.352;2022-12-07T07:00:59;100757.50;;;1.93;100.00
21129;BME280;10722;51.910;8.352;2022-12-07T07:03:45;100769.13;;;1.88;100.00
21129;BME280;10722;51.910;8.352;2022-12-07T07:06:31;100775.19;;;1.73;100.00
21129;BME280;10722;51.910;8.352;2022-12-07T07:09:16;100775.81;;;1.69;100.00
21129;BME280;10722;51.910;8.352;2022-12-07T07:12:03;100778.38;;;1.69;100.00
21129;BME280;10722;51.910;8.352;2022-12-07T07:14:48;100777.91;;;1.76;100.00
21129;BME280;10722;51.910;8.352;2022-12-07T07:17:33;100783.53;;;1.71;100.00
21129;BME280;10722;51.910;8.352;2022-12-07T07:20:18;100788.47;;;1.68;100.00
21129;BME280;10722;51.910;8.352;2022-12-07T07:23:04;100780.75;;;1.66;100.00
21129;BME280;10722;51.910;8.352;2022-12-07T07:25:49;100780.00;;;1.52;100.00
21129;BME280;10722;51.910;8.352;2022-12-07T07:28:34;100779.75;;;1.48;100.00
21129;BME280;10722;51.910;8.352;2022-12-07T07:31:19;100779.38;;;1.56;100.00
21129;BME280;10722;51.910;8.352;2022-12-07T07:34:05;100784.63;;;1.60;100.00
21129;BME280;10722;51.910;8.352;2022-12-07T07:36:50;100791.09;;;1.53;100.00
21129;BME280;10722;51.910;8.352;2022-12-07T07:39:36;100803.28;;;1.59;100.00
21129;BME280;10722;51.910;8.352;2022-12-07T07:42:22;100801.63;;;1.59;100.00
21129;BME280;10722;51.910;8.352;2022-12-07T07:45:08;100796.41;;;1.57;100.00
21129;BME280;10722;51.910;8.352;2022-12-07T07:47:53;100803.66;;;1.50;100.00
21129;BME280;10722;51.910;8.352;2022-12-07T07:50:38;100804.38;;;1.47;100.00
21129;BME280;10722;51.910;8.352;2022-12-07T07:53:24;100810.34;;;1.48;100.00
21129;BME280;10722;51.910;8.352;2022-12-07T07:56:09;100814.75;;;1.50;100.00
21129;BME280;10722;51.910;8.352;2022-12-07T07:58:54;100809.53;;;1.49;100.00
21129;BME280;10722;51.910;8.352;2022-12-07T08:01:40;100820.38;;;1.45;100.00
21129;BME280;10722;51.910;8.352;2022-12-07T08:04:25;100815.06;;;1.56;100.00
21129;BME280;10722;51.910;8.352;2022-12-07T08:07:12;100821.84;;;1.56;100.00
21129;BME280;10722;51.910;8.352;2022-12-07T08:09:57;100813.91;;;1.66;100.00
21129;BME280;10722;51.910;8.352;2022-12-07T08:12:44;100816.78;;;1.72;100.00
21129;BME280;10722;51.910;8.352;2022-12-07T08:15:30;100816.28;;;1.63;100.00
21129;BME280;10722;51.910;8.352;2022-12-07T08:18:16;100811.28;;;1.65;100.00
21129;BME280;10722;51.910;8.352;2022-12-07T08:21:02;100815.25;;;1.60;100.00
21129;BME280;10722;51.910;8.352;2022-12-07T08:23:48;100812.84;;;1.63;100.00
21129;BME280;10722;51.910;8.352;2022-12-07T08:26:34;100818.50;;;1.57;100.00
21129;BME280;10722;51.910;8.352;2022-12-07T08:29:19;100813.59;;;1.76;100.00
21129;BME280;10722;51.910;8.352;2022-12-07T08:32:04;100812.03;;;1.78;100.00
21129;BME280;10722;51.910;8.352;2022-12-07T08:34:54;100816.69;;;1.71;100.00
21129;BME280;10722;51.910;8.352;2022-12-07T08:37:39;100815.19;;;1.74;100.00
21129;BME280;10722;51.910;8.352;2022-12-07T08:40:24;100816.00;;;1.73;100.00
21129;BME280;10722;51.910;8.352;2022-12-07T08:43:10;100817.88;;;1.92;100.00
21129;BME280;10722;51.910;8.352;2022-12-07T08:46:11;100808.09;;;2.00;100.00
21129;BME280;10722;51.910;8.352;2022-12-07T08:49:03;100812.00;;;2.10;100.00
21129;BME280;10722;51.910;8.352;2022-12-07T08:51:49;100813.19;;;2.00;100.00
21129;BME280;10722;51.910;8.352;2022-12-07T08:54:36;100808.09;;;2.00;100.00
21129;BME280;10722;51.910;8.352;2022-12-07T08:57:24;100809.19;;;2.05;100.00
21129;BME280;10722;51.910;8.352;2022-12-07T09:00:10;100809.19;;;1.89;100.00
21129;BME280;10722;51.910;8.352;2022-12-07T09:02:56;100808.94;;;1.84;100.00
21129;BME280;10722;51.910;8.352;2022-12-07T09:05:41;100811.19;;;1.94;100.00
21129;BME280;10722;51.910;8.352;2022-12-07T09:08:32;100800.34;;;1.98;100.00
21129;BME280;10722;51.910;8.352;2022-12-07T09:11:18;100805.69;;;2.03;100.00
21129;BME280;10722;51.910;8.352;2022-12-07T09:14:11;100813.81;;;2.12;100.00
21129;BME280;10722;51.910;8.352;2022-12-07T09:17:08;100810.31;;;2.27;100.00
21129;BME280;10722;51.910;8.352;2022-12-07T09:19:54;100811.75;;;2.38;100.00
21129;BME280;10722;51.910;8.352;2022-12-07T09:22:39;100805.69;;;2.52;100.00
21129;BME280;10722;51.910;8.352;2022-12-07T09:25:24;100807.34;;;2.68;100.00
21129;BME280;10722;51.910;8.352;2022-12-07T09:28:09;100812.19;;;2.80;100.00
21129;BME280;10722;51.910;8.352;2022-12-07T09:30:55;100803.84;;;2.84;100.00
21129;BME280;10722;51.910;8.352;2022-12-07T09:34:00;100814.03;;;2.82;100.00
21129;BME280;10722;51.910;8.352;2022-12-07T09:36:46;100809.22;;;3.06;100.00
21129;BME280;10722;51.910;8.352;2022-12-07T09:39:31;100801.22;;;3.17;100.00
21129;BME280;10722;51.910;8.352;2022-12-07T09:42:33;100801.78;;;3.11;100.00
21129;BME280;10722;51.910;8.352;2022-12-07T09:45:38;100803.84;;;3.36;100.00
21129;BME280;10722;51.910;8.352;2022-12-07T09:48:36;100799.69;;;3.38;100.00
21129;BME280;10722;51.910;8.352;2022-12-07T09:51:23;100794.28;;;3.32;100.00
21129;BME280;10722;51.910;8.352;2022-12-07T09:54:14;100794.25;;;3.68;100.00
21129;BME280;10722;51.910;8.352;2022-12-07T09:57:00;100794.97;;;3.83;100.00
21129;BME280;10722;51.910;8.352;2022-12-07T09:59:45;100791.09;;;3.73;100.00
21129;BME280;10722;51.910;8.352;2022-12-07T10:02:42;100785.41;;;3.98;100.00
21129;BME280;10722;51.910;8.352;2022-12-07T10:05:35;100782.78;;;3.59;100.00
21129;BME280;10722;51.910;8.352;2022-12-07T10:08:21;100780.09;;;3.56;100.00
21129;BME280;10722;51.910;8.352;2022-12-07T10:11:07;100771.91;;;3.64;100.00
21129;BME280;10722;51.910;8.352;2022-12-07T10:13:52;100770.13;;;3.63;100.00
21129;BME280;10722;51.910;8.352;2022-12-07T10:16:41;100767.06;;;3.52;100.00
21129;BME280;10722;51.910;8.352;2022-12-07T10:19:29;100773.38;;;3.58;100.00
21129;BME280;10722;51.910;8.352;2022-12-07T10:22:16;100763.72;;;3.53;100.00
21129;BME280;10722;51.910;8.352;2022-12-07T10:25:09;100761.66;;;3.64;100.00
21129;BME280;10722;51.910;8.352;2022-12-07T10:28:17;100763.09;;;3.76;100.00
21129;BME280;10722;51.910;8.352;2022-12-07T10:31:16;100757.31;;;3.80;100.00
21129;BME280;10722;51.910;8.352;2022-12-07T10:34:02;100751.53;;;3.85;100.00
21129;BME280;10722;51.910;8.352;2022-12-07T10:36:47;100743.22;;;3.71;100.00
21129;BME280;10722;51.910;8.352;2022-12-07T10:39:53;100743.97;;;3.88;100.00
21129;BME280;10722;51.910;8.352;2022-12-07T10:42:38;100742.03;;;4.21;100.00
21129;BME280;10722;51.910;8.352;2022-12-07T10:45:23;100737.63;;;4.38;100.00
21129;BME280;10722;51.910;8.352;2022-12-07T10:48:15;100728.22;;;4.17;100.00
21129;BME280;10722;51.910;8.352;2022-12-07T10:54:27;100726.19;;;4.30;100.00
21129;BME280;10722;51.910;8.352;2022-12-07T10:57:26;100723.88;;;4.36;100.00
21129;BME280;10722;51.910;8.352;2022-12-07T11:00:39;100713.88;;;4.42;100.00
21129;BME280;10722;51.910;8.352;2022-12-07T11:03:43;100710.19;;;4.35;100.00
21129;BME280;10722;51.910;8.352;2022-12-07T11:16:19;100709.69;;;4.03;100.00
21129;BME280;10722;51.910;8.352;2022-12-07T11:31:55;100682.44;;;4.25;100.00
21129;BME280;10722;51.910;8.352;2022-12-07T11:34:55;100674.81;;;4.06;100.00
21129;BME280;10722;51.910;8.352;2022-12-07T11:37:45;100674.50;;;4.19;100.00
21129;BME280;10722;51.910;8.352;2022-12-07T11:40:33;100669.94;;;4.12;100.00
21129;BME280;10722;51.910;8.352;2022-12-07T11:43:24;100682.53;;;4.07;100.00
21129;BME280;10722;51.910;8.352;2022-12-07T11:46:14;100673.47;;;4.35;100.00
21129;BME280;10722;51.910;8.352;2022-12-07T11:52:22;100661.00;;;4.42;100.00
21129;BME280;10722;51.910;8.352;2022-12-07T11:55:23;100654.59;;;4.75;100.00
21129;BME280;10722;51.910;8.352;2022-12-07T11:58:19;100649.06;;;4.86;100.00
21129;BME280;10722;51.910;8.352;2022-12-07T12:06:56;100640.66;;;4.68;100.00
21129;BME280;10722;51.910;8.352;2022-12-07T12:10:03;100627.09;;;4.49;100.00
21129;BME280;10722;51.910;8.352;2022-12-07T12:12:54;100631.44;;;4.51;100.00
21129;BME280;10722;51.910;8.352;2022-12-07T12:22:10;100626.72;;;5.27;100.00
21129;BME280;10722;51.910;8.352;2022-12-07T12:24:57;100613.84;;;5.74;100.00
21129;BME280;10722;51.910;8.352;2022-12-07T12:27:46;100592.84;;;6.10;100.00
21129;BME280;10722;51.910;8.352;2022-12-07T12:30:36;100586.50;;;5.50;100.00
21129;BME280;10722;51.910;8.352;2022-12-07T12:33:28;100591.31;;;5.41;100.00
21129;BME280;10722;51.910;8.352;2022-12-07T12:41:56;100597.22;;;4.93;100.00
21129;BME280;10722;51.910;8.352;2022-12-07T12:45:03;100595.75;;;4.78;100.00
21129;BME280;10722;51.910;8.352;2022-12-07T12:47:58;100598.59;;;4.63;100.00
21129;BME280;10722;51.910;8.352;2022-12-07T12:50:43;100598.84;;;4.69;100.00
21129;BME280;10722;51.910;8.352;2022-12-07T12:53:28;100600.00;;;4.77;100.00
21129;BME280;10722;51.910;8.352;2022-12-07T12:56:29;100595.28;;;4.65;100.00
21129;BME280;10722;51.910;8.352;2022-12-07T12:59:35;100597.81;;;4.86;100.00
21129;BME280;10722;51.910;8.352;2022-12-07T13:02:32;100594.16;;;5.26;100.00
21129;BME280;10722;51.910;8.352;2022-12-07T13:05:24;100574.47;;;5.25;100.00
21129;BME280;10722;51.910;8.352;2022-12-07T13:08:18;100575.91;;;4.94;100.00
21129;BME280;10722;51.910;8.352;2022-12-07T13:11:41;100575.09;;;4.96;100.00
21129;BME280;10722;51.910;8.352;2022-12-07T13:20:40;100588.03;;;4.76;100.00
21129;BME280;10722;51.910;8.352;2022-12-07T13:29:18;100589.50;;;5.38;100.00
21129;BME280;10722;51.910;8.352;2022-12-07T13:32:04;100576.69;;;6.12;100.00
21129;BME280;10722;51.910;8.352;2022-12-07T13:34:49;100549.63;;;6.23;100.00
21129;BME280;10722;51.910;8.352;2022-12-07T13:37:34;100531.59;;;6.22;99.81
21129;BME280;10722;51.910;8.352;2022-12-07T13:40:23;100509.47;;;5.74;98.78
21129;BME280;10722;51.910;8.352;2022-12-07T13:43:14;100526.06;;;5.34;99.35
21129;BME280;10722;51.910;8.352;2022-12-07T13:46:10;100521.78;;;5.59;99.26
21129;BME280;10722;51.910;8.352;2022-12-07T13:48:56;100509.63;;;5.29;99.35
21129;BME280;10722;51.910;8.352;2022-12-07T13:51:41;100520.75;;;5.06;100.00
21129;BME280;10722;51.910;8.352;2022-12-07T13:54:26;100534.94;;;4.96;100.00
21129;BME280;10722;51.910;8.352;2022-12-07T13:57:11;100535.06;;;4.77;100.00
21129;BME280;10722;51.910;8.352;2022-12-07T13:59:57;100539.97;;;4.70;100.00
21129;BME280;10722;51.910;8.352;2022-12-07T14:05:45;100557.94;;;4.72;100.00
21129;BME280;10722;51.910;8.352;2022-12-07T14:08:30;100556.91;;;4.67;100.00
21129;BME280;10722;51.910;8.352;2022-12-07T14:11:18;100566.88;;;4.82;100.00
21129;BME280;10722;51.910;8.352;2022-12-07T14:14:04;100562.03;;;4.89;100.00
21129;BME280;10722;51.910;8.352;2022-12-07T14:17:17;100565.72;;;4.96;100.00
21129;BME280;10722;51.910;8.352;2022-12-07T14:20:03;100552.66;;;4.90;100.00
21129;BME280;10722;51.910;8.352;2022-12-07T14:22:55;100551.31;;;4.77;100.00
21129;BME280;10722;51.910;8.352;2022-12-07T14:25:48;100547.81;;;4.75;100.00
21129;BME280;10722;51.910;8.352;2022-12-07T14:28:36;100554.22;;;4.64;100.00
21129;BME280;10722;51.910;8.352;2022-12-07T14:31:24;100551.63;;;4.41;100.00
21129;BME280;10722;51.910;8.352;2022-12-07T14:34:14;100561.09;;;4.42;100.00
21129;BME280;10722;51.910;8.352;2022-12-07T14:37:00;100556.31;;;4.31;100.00
21129;BME280;10722;51.910;8.352;2022-12-07T14:39:45;100556.72;;;4.19;100.00
21129;BME280;10722;51.910;8.352;2022-12-07T14:42:30;100553.41;;;4.21;100.00
21129;BME280;10722;51.910;8.352;2022-12-07T14:45:18;100552.66;;;4.03;100.00
21129;BME280;10722;51.910;8.352;2022-12-07T14:48:04;100553.28;;;3.97;100.00
21129;BME280;10722;51.910;8.352;2022-12-07T14:51:11;100558.69;;;3.84;100.00
21129;BME280;10722;51.910;8.352;2022-12-07T14:54:19;100564.94;;;3.91;100.00
21129;BME280;10722;51.910;8.352;2022-12-07T14:57:06;100575.91;;;3.88;100.00
21129;BME280;10722;51.910;8.352;2022-12-07T14:59:52;100570.22;;;3.74;100.00
21129;BME280;10722;51.910;8.352;2022-12-07T15:02:37;100569.22;;;3.71;100.00
21129;BME280;10722;51.910;8.352;2022-12-07T15:05:23;100566.41;;;3.65;100.00
21129;BME280;10722;51.910;8.352;2022-12-07T15:08:10;100563.38;;;3.54;100.00
21129;BME280;10722;51.910;8.352;2022-12-07T15:10:56;100579.94;;;3.62;100.00
21129;BME280;10722;51.910;8.352;2022-12-07T15:13:41;100575.03;;;3.47;100.00
21129;BME280;10722;51.910;8.352;2022-12-07T15:16:26;100580.28;;;3.31;100.00
21129;BME280;10722;51.910;8.352;2022-12-07T15:19:17;100584.44;;;3.29;100.00
21129;BME280;10722;51.910;8.352;2022-12-07T15:22:12;100588.31;;;3.39;100.00
21129;BME280;10722;51.910;8.352;2022-12-07T15:24:57;100589.69;;;3.32;100.00
21129;BME280;10722;51.910;8.352;2022-12-07T15:27:43;100592.06;;;3.27;100.00
21129;BME280;10722;51.910;8.352;2022-12-07T15:30:28;100587.13;;;3.32;100.00
21129;BME280;10722;51.910;8.352;2022-12-07T15:33:13;100583.84;;;3.34;100.00
21129;BME280;10722;51.910;8.352;2022-12-07T15:35:58;100576.25;;;3.36;100.00
21129;BME280;10722;51.910;8.352;2022-12-07T15:38:44;100576.50;;;3.23;100.00
21129;BME280;10722;51.910;8.352;2022-12-07T15:41:49;100576.47;;;3.21;100.00
21129;BME280;10722;51.910;8.352;2022-12-07T15:44:34;100571.03;;;3.15;100.00
21129;BME280;10722;51.910;8.352;2022-12-07T15:47:20;100572.59;;;3.11;100.00
21129;BME280;10722;51.910;8.352;2022-12-07T15:50:08;100572.38;;;3.07;100.00
21129;BME280;10722;51.910;8.352;2022-12-07T15:52:53;100576.84;;;3.11;100.00
21129;BME280;10722;51.910;8.352;2022-12-07T15:55:39;100569.22;;;3.12;100.00
21129;BME280;10722;51.910;8.352;2022-12-07T15:58:24;100569.91;;;3.08;100.00
21129;BME280;10722;51.910;8.352;2022-12-07T16:01:14;100571.00;;;3.13;100.00
21129;BME280;10722;51.910;8.352;2022-12-07T16:04:00;100559.69;;;3.08;100.00